Terminal Aerodrome Forecast
Issued by NWS Bismarck, ND

Home | Current Version | Previous Version | Graphics & Text | Print | Product List | Glossary On
Versions: 1 2 3 4 5 6 7 8 9 10 11 12 13 14 15 16 17 18 19
000
FTUS43 KBIS 041749
TAFBIS
TAF
KBIS 041749Z 0418/0518 13006KT 4SM HZ SKC
     FM042000 18012KT P6SM SCT060
     FM050300 18009KT P6SM VCTS SCT080CB BKN120
     FM050600 18008KT P6SM BKN120
     FM051200 01008KT P6SM VCSH SCT050 OVC100
     FM051700 34015KT P6SM VCTS SCT050 OVC100CB=

USA.gov is the U.S. government's official web portal to all federal, state and local government web resources and services.